createdAt,value
2023-01-10T00:00:32.177Z,5.30
2023-01-10T00:02:58.926Z,5.30
2023-01-10T00:05:25.654Z,5.30
2023-01-10T00:07:52.315Z,5.30
2023-01-10T00:10:19.630Z,5.40
2023-01-10T00:13:05.145Z,5.50
2023-01-10T00:15:36.281Z,5.50
2023-01-10T00:18:03.623Z,5.60
2023-01-10T00:20:30.477Z,5.60
2023-01-10T00:22:57.624Z,5.70
2023-01-10T00:25:24.856Z,5.80
2023-01-10T00:28:01.796Z,5.80
2023-01-10T00:30:28.913Z,5.90
2023-01-10T00:32:56.731Z,5.90
2023-01-10T00:35:23.365Z,5.90
2023-01-10T00:37:50.499Z,5.90
2023-01-10T00:40:17.232Z,6.00
2023-01-10T00:43:02.367Z,6.00
2023-01-10T00:45:29.023Z,6.00
2023-01-10T00:47:55.871Z,6.00
2023-01-10T00:50:22.571Z,6.10
2023-01-10T00:52:49.269Z,6.10
2023-01-10T00:55:15.949Z,6.10
2023-01-10T00:57:42.597Z,6.20
2023-01-10T01:00:10.189Z,6.10
2023-01-10T01:02:36.851Z,6.20
2023-01-10T01:05:07.645Z,6.20
2023-01-10T01:07:34.417Z,6.20
2023-01-10T01:10:19.703Z,6.20
2023-01-10T01:12:46.391Z,6.10
2023-01-10T01:15:13.003Z,6.10
2023-01-10T01:17:39.759Z,6.10
2023-01-10T01:20:07.121Z,6.00
2023-01-10T01:22:34.057Z,6.00
2023-01-10T01:25:01.242Z,5.90
2023-01-10T01:27:27.927Z,5.90
2023-01-10T01:29:54.604Z,5.90
2023-01-10T01:32:21.909Z,5.90
2023-01-10T01:34:48.841Z,5.90
2023-01-10T01:37:16.386Z,5.90
2023-01-10T01:39:44.468Z,5.90
2023-01-10T01:42:32.942Z,6.00
2023-01-10T01:45:22.997Z,5.90
2023-01-10T01:47:58.273Z,6.00
2023-01-10T01:50:32.775Z,6.00
2023-01-10T01:53:01.865Z,6.10
2023-01-10T01:55:31.389Z,6.10
2023-01-10T01:58:00.534Z,6.10
2023-01-10T02:00:27.236Z,6.10
2023-01-10T02:03:02.705Z,6.20
2023-01-10T02:05:31.418Z,6.20
2023-01-10T02:08:02.006Z,6.20
2023-01-10T02:10:40.875Z,6.30
2023-01-10T02:13:11.508Z,6.30
2023-01-10T02:15:38.241Z,6.30
2023-01-10T02:18:05.267Z,6.30
2023-01-10T02:20:47.410Z,6.40
2023-01-10T02:23:22.249Z,6.40
2023-01-10T02:26:19.873Z,6.30
2023-01-10T02:29:14.370Z,6.40
2023-01-10T02:32:23.534Z,6.40
2023-01-10T02:35:26.225Z,6.40
2023-01-10T02:38:16.145Z,6.40
2023-01-10T02:40:55.379Z,6.40
2023-01-10T02:43:26.738Z,6.40
2023-01-10T02:46:05.339Z,6.40
2023-01-10T02:48:31.999Z,6.40
2023-01-10T02:51:22.570Z,6.40
2023-01-10T02:53:56.314Z,6.40
2023-01-10T02:56:34.761Z,6.40
2023-01-10T02:59:32.045Z,6.40
2023-01-10T03:02:23.010Z,6.40
2023-01-10T03:05:28.330Z,6.30
2023-01-10T03:08:07.778Z,6.30
2023-01-10T03:10:57.867Z,6.30
2023-01-10T03:13:33.913Z,6.30
2023-01-10T03:16:03.004Z,6.30
2023-01-10T03:18:45.987Z,6.30
2023-01-10T03:21:13.331Z,6.30
2023-01-10T03:23:40.714Z,6.30
2023-01-10T03:26:09.964Z,6.40
2023-01-10T03:28:55.754Z,6.40
2023-01-10T03:31:30.049Z,6.40
2023-01-10T03:33:56.836Z,6.30
2023-01-10T03:36:43.143Z,6.40
2023-01-10T03:39:22.918Z,6.40
2023-01-10T03:41:59.199Z,6.40
2023-01-10T03:44:44.060Z,6.40
2023-01-10T03:47:27.960Z,6.50
2023-01-10T03:49:59.874Z,6.50
2023-01-10T03:52:27.125Z,6.50
2023-01-10T03:54:54.037Z,6.60
2023-01-10T03:57:23.335Z,6.60
2023-01-10T03:59:55.384Z,6.60
2023-01-10T04:02:22.084Z,6.50
2023-01-10T04:04:48.741Z,6.60
2023-01-10T04:07:15.381Z,6.60
2023-01-10T04:09:42.032Z,6.60
2023-01-10T04:12:08.703Z,6.60
2023-01-10T04:14:35.468Z,6.60
2023-01-10T04:17:02.240Z,6.60
2023-01-10T04:19:28.872Z,6.70
2023-01-10T04:21:55.651Z,6.60
2023-01-10T04:24:22.343Z,6.60
2023-01-10T04:26:49.068Z,6.60
2023-01-10T04:29:15.775Z,6.70
2023-01-10T04:31:42.565Z,6.60
2023-01-10T04:34:10.034Z,6.60
2023-01-10T04:36:36.965Z,6.70
2023-01-10T04:39:04.528Z,6.70
2023-01-10T04:41:31.221Z,6.70
2023-01-10T04:43:58.041Z,6.70
2023-01-10T04:46:24.737Z,6.70
2023-01-10T04:48:51.550Z,6.70
2023-01-10T04:51:18.367Z,6.70
2023-01-10T04:53:45.209Z,6.70
2023-01-10T04:56:18.376Z,6.70
2023-01-10T04:58:45.339Z,6.60
2023-01-10T05:01:17.291Z,6.60
2023-01-10T05:03:44.413Z,6.60
2023-01-10T05:06:11.093Z,6.70
2023-01-10T05:08:37.756Z,6.60
2023-01-10T05:11:04.609Z,6.60
2023-01-10T05:13:31.288Z,6.60
2023-01-10T05:15:58.744Z,6.60
2023-01-10T05:18:26.584Z,6.60
2023-01-10T05:20:53.541Z,6.70
2023-01-10T05:23:20.246Z,6.70
2023-01-10T05:25:46.899Z,6.70
2023-01-10T05:28:13.553Z,6.70
2023-01-10T05:30:40.192Z,6.70
2023-01-10T05:33:07.102Z,6.70
2023-01-10T05:35:34.659Z,6.70
2023-01-10T05:38:01.325Z,6.70
2023-01-10T05:40:28.043Z,6.60
2023-01-10T05:42:54.750Z,6.70
2023-01-10T05:45:21.541Z,6.60
2023-01-10T05:47:48.451Z,6.60
2023-01-10T05:50:15.472Z,6.60
2023-01-10T05:52:42.219Z,6.60
2023-01-10T05:55:09.080Z,6.60
2023-01-10T05:57:35.762Z,6.50
2023-01-10T06:00:05.263Z,6.60
2023-01-10T06:02:32.628Z,6.50
2023-01-10T06:04:59.588Z,6.50
2023-01-10T06:07:26.322Z,6.50
2023-01-10T06:09:53.081Z,6.50
2023-01-10T06:12:19.732Z,6.50
2023-01-10T06:14:46.392Z,6.40
2023-01-10T06:17:13.103Z,6.40
2023-01-10T06:19:39.875Z,6.40
2023-01-10T06:22:06.522Z,6.40
2023-01-10T06:24:33.204Z,6.40
2023-01-10T06:26:59.949Z,6.40
2023-01-10T06:29:26.579Z,6.50
2023-01-10T06:31:53.228Z,6.50
2023-01-10T06:34:19.870Z,6.60
2023-01-10T06:36:46.543Z,6.60
2023-01-10T06:39:13.181Z,6.60
2023-01-10T06:41:39.877Z,6.60
2023-01-10T06:44:06.658Z,6.60
2023-01-10T06:46:33.384Z,6.70
2023-01-10T06:49:00.130Z,6.70
2023-01-10T06:51:26.915Z,6.70
2023-01-10T06:53:53.607Z,6.80
2023-01-10T06:56:20.282Z,6.80
2023-01-10T06:58:49.900Z,6.80
2023-01-10T07:01:20.355Z,6.80
2023-01-10T07:03:48.266Z,6.80
2023-01-10T07:06:15.248Z,6.80
2023-01-10T07:08:44.908Z,6.80
2023-01-10T07:11:13.535Z,6.80
2023-01-10T07:13:40.785Z,6.80
2023-01-10T07:16:10.622Z,6.80
2023-01-10T07:18:39.073Z,6.80
2023-01-10T07:21:06.450Z,6.90
2023-01-10T07:23:33.454Z,6.90
2023-01-10T07:26:09.716Z,6.90
2023-01-10T07:28:36.677Z,6.90
2023-01-10T07:31:10.384Z,6.90
2023-01-10T07:33:37.365Z,6.90
2023-01-10T07:36:04.273Z,6.90
2023-01-10T07:38:33.686Z,6.80
2023-01-10T07:41:03.553Z,6.80
2023-01-10T07:43:30.791Z,6.80
2023-01-10T07:46:01.669Z,6.80
2023-01-10T07:48:28.683Z,6.80
2023-01-10T07:50:57.501Z,6.80
2023-01-10T07:53:25.270Z,6.80
2023-01-10T07:55:53.716Z,6.80
2023-01-10T07:58:20.675Z,6.80
2023-01-10T08:00:49.416Z,6.80
2023-01-10T08:03:18.613Z,6.70
2023-01-10T08:05:45.358Z,6.80
2023-01-10T08:08:12.956Z,6.80
2023-01-10T08:10:46.022Z,6.80
2023-01-10T08:13:18.808Z,6.80
2023-01-10T08:15:47.343Z,6.80
2023-01-10T08:18:14.325Z,6.80
2023-01-10T08:20:41.382Z,6.80
2023-01-10T08:23:10.859Z,6.80
2023-01-10T08:25:39.540Z,6.80
2023-01-10T08:28:06.580Z,6.80
2023-01-10T08:30:33.322Z,6.70
2023-01-10T08:33:03.429Z,6.70
2023-01-10T08:35:37.391Z,6.70
2023-01-10T08:38:04.116Z,6.70
2023-01-10T08:40:30.767Z,6.80
2023-01-10T08:43:02.150Z,6.80
2023-01-10T08:45:29.292Z,6.80
2023-01-10T08:47:55.967Z,6.70
2023-01-10T08:50:23.029Z,6.70
2023-01-10T08:52:51.075Z,6.80
2023-01-10T08:55:18.966Z,6.80
2023-01-10T08:57:45.643Z,6.90
2023-01-10T09:00:13.180Z,6.90
2023-01-10T09:02:40.554Z,6.90
2023-01-10T09:05:15.028Z,7.00
2023-01-10T09:07:48.804Z,7.10
2023-01-10T09:10:15.586Z,7.10
2023-01-10T09:12:57.500Z,7.10
2023-01-10T09:15:32.720Z,7.10
2023-01-10T09:18:03.442Z,7.10
2023-01-10T09:20:30.493Z,7.10
2023-01-10T09:22:58.466Z,7.10
2023-01-10T09:25:25.806Z,7.10
2023-01-10T09:28:08.396Z,7.10
2023-01-10T09:30:35.671Z,7.20
2023-01-10T09:33:03.367Z,7.20
2023-01-10T09:35:31.443Z,7.20
2023-01-10T09:38:01.263Z,7.20
2023-01-10T09:40:49.715Z,7.20
2023-01-10T09:43:41.560Z,7.10
2023-01-10T09:46:39.853Z,7.10
2023-01-10T09:49:25.423Z,7.10
2023-01-10T09:51:59.217Z,7.10
2023-01-10T09:54:30.268Z,7.10
2023-01-10T09:56:59.136Z,7.20
2023-01-10T09:59:31.479Z,7.20
2023-01-10T10:02:06.929Z,7.30
2023-01-10T10:04:37.132Z,7.30
2023-01-10T10:07:08.500Z,7.30
2023-01-10T10:09:35.436Z,7.40
2023-01-10T10:12:29.173Z,7.40
2023-01-10T10:15:21.905Z,7.40
2023-01-10T10:18:29.863Z,7.40
2023-01-10T10:21:31.347Z,7.50
2023-01-10T10:24:06.938Z,7.50
2023-01-10T10:26:37.825Z,7.50
2023-01-10T10:29:26.097Z,7.50
2023-01-10T10:32:30.712Z,7.50
2023-01-10T10:35:08.061Z,7.50
2023-01-10T10:37:45.362Z,7.50
2023-01-10T10:40:15.005Z,7.40
2023-01-10T10:42:47.233Z,7.40
2023-01-10T10:45:43.161Z,7.30
2023-01-10T10:48:17.945Z,7.40
2023-01-10T10:51:07.612Z,7.40
2023-01-10T10:53:35.290Z,7.40
2023-01-10T10:56:04.233Z,7.40
2023-01-10T10:58:34.162Z,7.40
2023-01-10T11:01:01.411Z,7.40
2023-01-10T11:03:48.205Z,7.40
2023-01-10T11:06:20.103Z,7.40
2023-01-10T11:08:50.216Z,7.40
2023-01-10T11:11:40.085Z,7.40
2023-01-10T11:14:08.446Z,7.40
2023-01-10T11:16:39.033Z,7.30
2023-01-10T11:19:16.647Z,7.40
2023-01-10T11:22:07.401Z,7.40
2023-01-10T11:24:38.086Z,7.40
2023-01-10T11:27:16.027Z,7.40
2023-01-10T11:29:52.506Z,7.30
2023-01-10T11:32:23.074Z,7.30
2023-01-10T11:34:59.214Z,7.40
2023-01-10T11:37:34.265Z,7.40
2023-01-10T11:40:18.377Z,7.40
2023-01-10T11:42:46.046Z,7.40
2023-01-10T11:45:18.851Z,7.30
2023-01-10T11:48:05.817Z,7.40
2023-01-10T11:50:35.323Z,7.40
2023-01-10T11:53:02.315Z,7.40
2023-01-10T11:55:36.299Z,7.40
2023-01-10T11:58:08.805Z,7.40
2023-01-10T12:00:37.960Z,7.40
2023-01-10T12:03:36.858Z,7.40
2023-01-10T12:06:09.029Z,7.50
2023-01-10T12:08:37.888Z,7.50
2023-01-10T12:11:30.137Z,7.50
2023-01-10T12:14:00.081Z,7.50
2023-01-10T12:16:29.806Z,7.60
2023-01-10T12:19:02.788Z,7.60
2023-01-10T12:21:43.994Z,7.60
2023-01-10T12:24:30.552Z,7.60
2023-01-10T12:26:57.756Z,7.60
2023-01-10T12:29:29.440Z,7.60
2023-01-10T12:31:58.421Z,7.60
2023-01-10T12:34:41.582Z,7.60
2023-01-10T12:37:26.465Z,7.60
2023-01-10T12:40:02.167Z,7.60
2023-01-10T12:43:22.407Z,7.60
2023-01-10T12:45:53.843Z,7.60
2023-01-10T12:48:33.966Z,7.60
2023-01-10T12:51:06.149Z,7.60
2023-01-10T12:53:41.238Z,7.70
2023-01-10T12:56:13.630Z,7.70
2023-01-10T12:58:47.435Z,7.70
2023-01-10T13:01:17.475Z,7.70
2023-01-10T13:03:50.286Z,7.70
2023-01-10T13:06:30.413Z,7.70
2023-01-10T13:08:59.707Z,7.70
2023-01-10T13:11:30.987Z,7.70
2023-01-10T13:14:02.515Z,7.70
2023-01-10T13:16:52.570Z,7.70
2023-01-10T13:19:21.456Z,7.70
2023-01-10T13:21:48.358Z,7.70
2023-01-10T13:24:15.022Z,7.70
2023-01-10T13:26:59.636Z,7.70
2023-01-10T13:29:41.686Z,7.70
2023-01-10T13:32:24.711Z,7.70
2023-01-10T13:34:52.103Z,7.70
2023-01-10T13:37:25.756Z,7.60
2023-01-10T13:39:57.773Z,7.70
2023-01-10T13:42:53.267Z,7.70
2023-01-10T13:45:21.042Z,7.70
2023-01-10T13:47:57.078Z,7.70
2023-01-10T13:50:24.006Z,7.70
2023-01-10T13:52:54.512Z,7.70
2023-01-10T13:55:53.541Z,7.60
2023-01-10T13:58:41.678Z,7.70
2023-01-10T14:01:49.078Z,7.70
2023-01-10T14:04:33.553Z,7.70
2023-01-10T14:07:04.647Z,7.70
2023-01-10T14:09:36.340Z,7.70
2023-01-10T14:12:16.747Z,7.70
2023-01-10T14:14:57.847Z,7.70
2023-01-10T14:17:29.076Z,7.70
2023-01-10T14:20:10.105Z,7.70
2023-01-10T14:22:38.604Z,7.70
2023-01-10T14:25:20.764Z,7.70
2023-01-10T14:27:50.836Z,7.70
2023-01-10T14:30:26.355Z,7.70
2023-01-10T14:32:57.846Z,7.70
2023-01-10T14:35:32.747Z,7.70
2023-01-10T14:38:03.045Z,7.70
2023-01-10T14:40:41.035Z,7.70
2023-01-10T14:43:19.347Z,7.70
2023-01-10T14:45:59.133Z,7.80
2023-01-10T14:48:34.329Z,7.80
2023-01-10T14:51:21.630Z,7.80
2023-01-10T14:53:59.728Z,7.90
2023-01-10T14:56:30.329Z,7.80
2023-01-10T14:58:57.094Z,7.90
2023-01-10T15:01:27.881Z,7.80
2023-01-10T15:03:55.243Z,7.80
2023-01-10T15:06:21.974Z,7.80
2023-01-10T15:08:59.912Z,7.80
2023-01-10T15:11:27.822Z,7.80
2023-01-10T15:14:00.516Z,7.80
2023-01-10T15:16:28.684Z,7.80
2023-01-10T15:18:56.650Z,7.80
2023-01-10T15:21:24.442Z,7.80
2023-01-10T15:23:51.296Z,7.80
2023-01-10T15:26:29.185Z,7.70
2023-01-10T15:29:09.876Z,7.70
2023-01-10T15:31:38.348Z,7.70
2023-01-10T15:34:28.745Z,7.60
2023-01-10T15:36:58.020Z,7.60
2023-01-10T15:39:34.965Z,7.60
2023-01-10T15:42:11.345Z,7.50
2023-01-10T15:44:52.310Z,7.50
2023-01-10T15:47:37.994Z,7.40
2023-01-10T15:50:28.806Z,7.40
2023-01-10T15:53:10.179Z,7.30
2023-01-10T15:55:50.727Z,7.30
2023-01-10T15:58:35.924Z,7.30
2023-01-10T16:01:04.585Z,7.20
2023-01-10T16:03:37.460Z,7.20
2023-01-10T16:06:11.796Z,7.10
2023-01-10T16:08:39.108Z,7.10
2023-01-10T16:11:08.743Z,7.10
2023-01-10T16:13:37.385Z,7.10
2023-01-10T16:16:15.489Z,7.10
2023-01-10T16:18:42.350Z,7.10
2023-01-10T16:21:11.528Z,7.20
2023-01-10T16:23:46.896Z,7.10
2023-01-10T16:26:14.842Z,7.10
2023-01-10T16:28:41.723Z,7.10
2023-01-10T16:31:14.439Z,7.00
2023-01-10T16:33:42.077Z,7.00
2023-01-10T16:36:17.710Z,7.00
2023-01-10T16:38:44.918Z,7.00
2023-01-10T16:41:31.818Z,7.00
2023-01-10T16:43:58.727Z,7.00
2023-01-10T16:46:25.702Z,7.20
2023-01-10T16:48:53.358Z,7.10
2023-01-10T16:51:22.784Z,7.10
2023-01-10T16:53:50.416Z,7.00
2023-01-10T16:56:23.320Z,6.90
2023-01-10T16:58:51.451Z,6.90
2023-01-10T17:01:21.466Z,6.90
2023-01-10T17:03:48.335Z,6.80
2023-01-10T17:06:15.851Z,6.80
2023-01-10T17:08:44.672Z,6.80
2023-01-10T17:11:21.133Z,6.80
2023-01-10T17:13:48.457Z,6.80
2023-01-10T17:16:19.346Z,6.80
2023-01-10T17:18:46.802Z,6.80
2023-01-10T17:21:19.397Z,6.80
2023-01-10T17:23:47.074Z,6.70
2023-01-10T17:26:16.118Z,6.70
2023-01-10T17:28:44.781Z,6.70
2023-01-10T17:31:11.634Z,6.70
2023-01-10T17:33:38.369Z,6.70
2023-01-10T17:36:05.296Z,6.70
2023-01-10T17:38:31.964Z,6.70
2023-01-10T17:41:02.940Z,6.70
2023-01-10T17:43:31.102Z,6.70
2023-01-10T17:46:00.932Z,6.70
2023-01-10T17:48:27.785Z,6.70
2023-01-10T17:50:59.704Z,6.70
2023-01-10T17:53:27.172Z,6.70
2023-01-10T17:55:54.172Z,6.70
2023-01-10T17:58:21.550Z,6.70
2023-01-10T18:00:49.069Z,6.70
2023-01-10T18:03:16.451Z,6.80
2023-01-10T18:05:54.259Z,6.80
2023-01-10T18:08:21.875Z,6.80
2023-01-10T18:10:49.337Z,6.80
2023-01-10T18:13:18.216Z,6.80
2023-01-10T18:15:49.381Z,6.80
2023-01-10T18:18:16.788Z,6.80
2023-01-10T18:20:44.679Z,6.80
2023-01-10T18:23:21.648Z,6.80
2023-01-10T18:25:56.874Z,6.80
2023-01-10T18:28:39.562Z,6.90
2023-01-10T18:31:12.198Z,6.90
2023-01-10T18:33:39.214Z,6.90
2023-01-10T18:36:08.439Z,7.00
2023-01-10T18:38:36.442Z,7.00
2023-01-10T18:41:03.629Z,7.00
2023-01-10T18:43:33.090Z,7.00
2023-01-10T18:46:06.459Z,7.00
2023-01-10T18:48:33.532Z,7.00
2023-01-10T18:51:01.600Z,7.00
2023-01-10T18:53:28.765Z,7.00
2023-01-10T18:56:04.546Z,7.10
2023-01-10T18:58:33.848Z,7.10
2023-01-10T19:01:27.108Z,7.10
2023-01-10T19:03:53.851Z,7.20
2023-01-10T19:06:22.604Z,7.20
2023-01-10T19:08:52.502Z,7.20
2023-01-10T19:11:19.538Z,7.20
2023-01-10T19:13:47.587Z,7.20
2023-01-10T19:16:20.623Z,7.30
2023-01-10T19:18:53.132Z,7.30
2023-01-10T19:21:21.941Z,7.30
2023-01-10T19:23:51.218Z,7.30
2023-01-10T19:26:18.402Z,7.30
2023-01-10T19:28:46.028Z,7.30
2023-01-10T19:31:21.229Z,7.40
2023-01-10T19:33:48.310Z,7.40
2023-01-10T19:36:17.792Z,7.40
2023-01-10T19:38:45.084Z,7.40
2023-01-10T19:41:14.409Z,7.50
2023-01-10T19:43:41.168Z,7.40
2023-01-10T19:46:10.302Z,7.50
2023-01-10T19:48:38.386Z,7.50
2023-01-10T19:51:10.747Z,7.50
2023-01-10T19:53:41.998Z,7.50
2023-01-10T19:56:10.103Z,7.60
2023-01-10T19:58:38.544Z,7.60
2023-01-10T20:01:16.825Z,7.60
2023-01-10T20:03:46.512Z,7.60
2023-01-10T20:06:17.047Z,7.70
2023-01-10T20:08:47.600Z,7.70
2023-01-10T20:11:15.532Z,7.70
2023-01-10T20:13:48.207Z,7.70
2023-01-10T20:16:17.736Z,7.80
2023-01-10T20:18:45.334Z,7.80
2023-01-10T20:21:14.829Z,7.90
2023-01-10T20:23:42.144Z,7.90
2023-01-10T20:26:13.319Z,8.00
2023-01-10T20:28:43.803Z,8.00
2023-01-10T20:31:15.498Z,8.10
2023-01-10T20:33:42.446Z,8.10
2023-01-10T20:36:12.837Z,8.10
2023-01-10T20:38:40.233Z,8.10
2023-01-10T20:41:13.721Z,8.20
2023-01-10T20:43:43.890Z,8.20
2023-01-10T20:46:13.316Z,8.30
2023-01-10T20:48:43.578Z,8.30
2023-01-10T20:51:20.682Z,8.40
2023-01-10T20:53:48.912Z,8.40
2023-01-10T20:56:18.054Z,8.40
2023-01-10T20:58:44.848Z,8.40
2023-01-10T21:01:25.004Z,8.40
2023-01-10T21:03:56.032Z,8.40
2023-01-10T21:06:22.880Z,8.50
2023-01-10T21:08:50.536Z,8.50
2023-01-10T21:11:20.499Z,8.50
2023-01-10T21:13:47.529Z,8.60
2023-01-10T21:16:17.657Z,8.50
2023-01-10T21:18:44.925Z,8.60
2023-01-10T21:21:13.293Z,8.60
2023-01-10T21:23:40.394Z,8.60
2023-01-10T21:26:12.239Z,8.60
2023-01-10T21:28:46.749Z,8.60
2023-01-10T21:31:19.387Z,8.60
2023-01-10T21:33:49.042Z,8.60
2023-01-10T21:36:18.756Z,8.70
2023-01-10T21:38:45.769Z,8.70
2023-01-10T21:41:14.810Z,8.60
2023-01-10T21:43:46.052Z,8.70
2023-01-10T21:46:13.030Z,8.70
2023-01-10T21:48:39.885Z,8.70
2023-01-10T21:51:07.745Z,8.70
2023-01-10T21:53:34.499Z,8.70
2023-01-10T21:56:01.191Z,8.70
2023-01-10T21:58:27.950Z,8.70
2023-01-10T22:01:01.433Z,8.70
2023-01-10T22:03:28.196Z,8.80
2023-01-10T22:05:54.957Z,8.80
2023-01-10T22:08:25.353Z,8.80
2023-01-10T22:10:52.015Z,8.80
2023-01-10T22:13:24.114Z,8.80
2023-01-10T22:15:58.133Z,8.90
2023-01-10T22:18:25.129Z,8.90
2023-01-10T22:20:57.086Z,8.90
2023-01-10T22:23:27.492Z,8.90
2023-01-10T22:26:05.401Z,9.00
2023-01-10T22:28:32.742Z,9.00
2023-01-10T22:31:00.062Z,9.00
2023-01-10T22:33:32.056Z,9.00
2023-01-10T22:36:06.733Z,9.00
2023-01-10T22:38:34.062Z,9.00
2023-01-10T22:41:08.995Z,9.10
2023-01-10T22:43:36.190Z,9.10
2023-01-10T22:46:03.519Z,9.10
2023-01-10T22:48:30.277Z,9.10
2023-01-10T22:50:59.309Z,9.20
2023-01-10T22:53:27.357Z,9.20
2023-01-10T22:56:03.351Z,9.20
2023-01-10T22:58:30.488Z,9.30
2023-01-10T23:03:41.459Z,9.30
2023-01-10T23:06:08.473Z,9.30
2023-01-10T23:08:35.510Z,9.30
2023-01-10T23:11:02.462Z,9.40
2023-01-10T23:13:30.045Z,9.40
2023-01-10T23:16:08.357Z,9.40
2023-01-10T23:18:35.477Z,9.40
2023-01-10T23:21:02.385Z,9.40
2023-01-10T23:23:29.430Z,9.40
2023-01-10T23:26:01.817Z,9.40
2023-01-10T23:28:37.881Z,9.50
2023-01-10T23:31:06.880Z,9.50
2023-01-10T23:33:34.242Z,9.50
2023-01-10T23:36:01.573Z,9.50
2023-01-10T23:38:31.388Z,9.50
2023-01-10T23:40:58.281Z,9.50
2023-01-10T23:43:25.091Z,9.50
2023-01-10T23:45:52.056Z,9.60
2023-01-10T23:48:18.983Z,9.60
2023-01-10T23:50:49.869Z,9.60
2023-01-10T23:53:17.588Z,9.60
2023-01-10T23:55:47.088Z,9.70
2023-01-10T23:58:13.858Z,9.70
